Time;durP1;ratioP1;P1;durP2;ratioP2;P2;SDS_P1;SDS_P2;PMS_P1;PMS_P2;Temp;Humidity;BMP_temperature;BMP_pressure;BME280_temperature;BME280_humidity;BME280_pressure;Samples;Min_cycle;Max_cycle;Signal;HPM_P1;HPM_P2
2023/03/07 00:01:01;;;;;;;11.40;8.93;;;;;;;;;;5077730;28;20287;-85
2023/03/07 00:03:28;;;;;;;12.13;9.18;;;;;;;;;;5076897;28;20237;-85
2023/03/07 00:06:02;;;;;;;13.57;9.25;;;;;;;;;;5080049;28;20652;-84
2023/03/07 00:08:31;;;;;;;12.30;9.93;;;;;;;;;;5080561;28;20617;-84
2023/03/07 00:11:02;;;;;;;14.60;9.32;;;;;;;;;;5081733;28;20207;-85
2023/03/07 00:13:31;;;;;;;13.20;9.88;;;;;;;;;;5080512;28;20242;-85
2023/03/07 00:16:02;;;;;;;10.93;7.95;;;;;;;;;;5082014;28;20225;-85
2023/03/07 00:18:30;;;;;;;11.23;8.85;;;;;;;;;;5080335;28;20550;-84
2023/03/07 00:20:59;;;;;;;12.30;9.68;;;;;;;;;;5080254;28;20619;-86
2023/03/07 00:23:27;;;;;;;8.57;7.18;;;;;;;;;;5081400;28;20568;-84
2023/03/07 00:26:04;;;;;;;12.18;8.25;;;;;;;;;;5080654;28;20353;-85
2023/03/07 00:28:32;;;;;;;10.52;8.18;;;;;;;;;;5080911;28;20275;-85
2023/03/07 00:31:01;;;;;;;9.73;7.80;;;;;;;;;;5081188;28;20687;-85
2023/03/07 00:33:29;;;;;;;10.50;7.53;;;;;;;;;;5080964;28;20232;-85
2023/03/07 00:35:58;;;;;;;11.60;9.32;;;;;;;;;;5081293;28;20224;-84
2023/03/07 00:38:26;;;;;;;12.20;8.55;;;;;;;;;;5081514;28;20205;-83
2023/03/07 00:41:02;;;;;;;11.07;8.52;;;;;;;;;;5080896;28;20236;-84
2023/03/07 00:43:31;;;;;;;9.18;7.82;;;;;;;;;;5081437;28;20197;-85
2023/03/07 00:45:59;;;;;;;11.10;8.65;;;;;;;;;;5081260;28;20311;-84
2023/03/07 00:48:27;;;;;;;11.63;9.18;;;;;;;;;;5081088;28;20232;-84
2023/03/07 00:50:55;;;;;;;13.32;8.82;;;;;;;;;;5080573;28;20260;-84
2023/03/07 00:53:23;;;;;;;10.93;8.82;;;;;;;;;;5079880;28;20227;-84
2023/03/07 00:55:57;;;;;;;12.25;8.77;;;;;;;;;;5074961;28;20696;-83
2023/03/07 00:58:27;;;;;;;12.02;8.57;;;;;;;;;;5059967;28;20187;-84
2023/03/07 01:00:55;;;;;;;13.20;9.15;;;;;;;;;;5060132;28;20879;-85
2023/03/07 01:03:23;;;;;;;10.20;7.78;;;;;;;;;;5059226;28;20300;-84
2023/03/07 01:05:51;;;;;;;11.55;9.57;;;;;;;;;;5059290;28;20281;-84
2023/03/07 01:08:20;;;;;;;13.20;9.38;;;;;;;;;;5059565;28;20204;-84
2023/03/07 01:10:48;;;;;;;9.15;7.70;;;;;;;;;;5059275;28;20288;-84
2023/03/07 01:13:17;;;;;;;11.30;8.65;;;;;;;;;;5058513;28;20225;-84
2023/03/07 01:15:46;;;;;;;10.00;7.72;;;;;;;;;;5059206;28;20221;-84
2023/03/07 01:18:13;;;;;;;10.38;7.68;;;;;;;;;;5058996;28;20237;-84
2023/03/07 01:20:41;;;;;;;10.10;8.63;;;;;;;;;;5058979;28;20626;-85
2023/03/07 01:23:09;;;;;;;12.70;9.38;;;;;;;;;;5060265;28;20572;-84
2023/03/07 01:25:40;;;;;;;12.05;8.10;;;;;;;;;;5063137;28;20228;-85
2023/03/07 01:28:09;;;;;;;12.82;10.82;;;;;;;;;;5076752;28;20245;-84
2023/03/07 01:30:36;;;;;;;12.48;9.50;;;;;;;;;;5076016;28;20277;-84
2023/03/07 01:33:05;;;;;;;13.30;8.75;;;;;;;;;;5076755;28;20252;-84
2023/03/07 01:35:38;;;;;;;11.68;8.75;;;;;;;;;;5076536;28;20342;-84
2023/03/07 01:38:06;;;;;;;11.20;8.80;;;;;;;;;;5077369;28;20268;-83
2023/03/07 01:40:34;;;;;;;11.88;10.32;;;;;;;;;;5075390;28;20720;-84
2023/03/07 01:43:24;;;;;;;11.98;8.18;;;;;;;;;;5055982;28;20267;-84
2023/03/07 01:46:41;;;;;;;11.10;8.65;;;;;;;;;;5056454;28;20596;-83
2023/03/07 01:49:21;;;;;;;10.90;9.48;;;;;;;;;;5055312;28;20186;-84
2023/03/07 01:51:53;;;;;;;11.80;9.50;;;;;;;;;;5056000;28;20268;-84
2023/03/07 01:54:21;;;;;;;12.30;9.95;;;;;;;;;;5056197;28;20202;-84
2023/03/07 01:56:48;;;;;;;13.05;9.52;;;;;;;;;;5069131;28;20636;-83
2023/03/07 01:59:22;;;;;;;12.38;8.63;;;;;;;;;;5074748;28;20236;-84
2023/03/07 02:01:50;;;;;;;10.05;7.80;;;;;;;;;;5075378;28;20186;-84
2023/03/07 02:04:25;;;;;;;10.02;7.93;;;;;;;;;;5075277;28;20283;-83
2023/03/07 02:06:52;;;;;;;12.90;9.63;;;;;;;;;;5075154;28;20320;-83
2023/03/07 02:09:22;;;;;;;15.32;9.80;;;;;;;;;;5074294;28;20284;-84
2023/03/07 02:11:50;;;;;;;10.25;7.53;;;;;;;;;;5074865;28;20292;-83
2023/03/07 02:14:17;;;;;;;11.48;7.50;;;;;;;;;;5075260;28;20259;-83
2023/03/07 02:16:45;;;;;;;10.60;8.18;;;;;;;;;;5074995;28;20311;-83
2023/03/07 02:19:29;;;;;;;9.85;7.78;;;;;;;;;;5074493;28;20227;-83
2023/03/07 02:22:07;;;;;;;8.45;7.57;;;;;;;;;;5075436;28;20196;-83
2023/03/07 02:24:41;;;;;;;17.63;9.43;;;;;;;;;;5075189;28;20185;-83
2023/03/07 02:27:10;;;;;;;8.85;7.45;;;;;;;;;;5075243;28;20705;-85
2023/03/07 02:29:39;;;;;;;10.25;8.75;;;;;;;;;;5073638;28;20258;-85
2023/03/07 02:32:07;;;;;;;11.27;8.63;;;;;;;;;;5074877;28;20208;-83
2023/03/07 02:34:35;;;;;;;13.85;8.60;;;;;;;;;;5074718;28;20231;-84
2023/03/07 02:37:06;;;;;;;11.77;8.23;;;;;;;;;;5074313;28;20252;-83
2023/03/07 02:39:34;;;;;;;10.35;7.57;;;;;;;;;;5073764;28;20197;-83
2023/03/07 02:42:06;;;;;;;11.30;9.43;;;;;;;;;;5074676;28;20196;-83
2023/03/07 02:44:35;;;;;;;9.35;7.75;;;;;;;;;;5074908;28;20191;-83
2023/03/07 02:47:07;;;;;;;9.93;7.57;;;;;;;;;;5074312;28;20731;-84
2023/03/07 02:49:35;;;;;;;10.95;7.72;;;;;;;;;;5073806;28;20243;-84
2023/03/07 02:52:02;;;;;;;8.63;6.97;;;;;;;;;;5074562;28;20287;-83
2023/03/07 02:54:30;;;;;;;8.57;6.93;;;;;;;;;;5074083;28;20320;-84
2023/03/07 02:56:57;;;;;;;8.88;7.68;;;;;;;;;;5059813;28;20221;-83
2023/03/07 02:59:25;;;;;;;8.90;7.38;;;;;;;;;;5053527;28;20228;-83
2023/03/07 03:01:53;;;;;;;9.98;8.38;;;;;;;;;;5054511;28;20627;-83
2023/03/07 03:04:21;;;;;;;9.55;7.55;;;;;;;;;;5053771;28;20288;-83
2023/03/07 03:06:48;;;;;;;12.05;9.82;;;;;;;;;;5053999;28;20247;-83
2023/03/07 03:09:16;;;;;;;10.85;8.73;;;;;;;;;;5053081;28;20215;-83
2023/03/07 03:11:43;;;;;;;8.73;7.47;;;;;;;;;;5053854;28;20205;-85
2023/03/07 03:14:11;;;;;;;8.05;7.22;;;;;;;;;;5053943;28;20317;-83
2023/03/07 03:16:39;;;;;;;8.85;7.13;;;;;;;;;;5053776;28;20256;-85
2023/03/07 03:19:08;;;;;;;9.05;7.20;;;;;;;;;;5053887;28;20662;-84
2023/03/07 03:21:35;;;;;;;7.20;5.88;;;;;;;;;;5053596;28;20197;-84
2023/03/07 03:24:06;;;;;;;8.60;7.18;;;;;;;;;;5053853;28;20289;-84
2023/03/07 03:26:34;;;;;;;7.10;5.88;;;;;;;;;;5064942;28;20236;-84
2023/03/07 03:29:01;;;;;;;7.15;6.43;;;;;;;;;;5073422;28;20205;-83
2023/03/07 03:31:29;;;;;;;9.77;8.02;;;;;;;;;;5074166;28;20235;-84
2023/03/07 03:33:57;;;;;;;8.68;6.10;;;;;;;;;;5072817;28;20221;-84
2023/03/07 03:36:27;;;;;;;8.02;7.22;;;;;;;;;;5073836;28;20228;-82
2023/03/07 03:38:56;;;;;;;7.97;6.38;;;;;;;;;;5072821;28;20276;-85
2023/03/07 03:41:25;;;;;;;8.63;6.95;;;;;;;;;;5073604;28;20223;-83
2023/03/07 03:43:52;;;;;;;7.68;6.05;;;;;;;;;;5074131;28;20223;-84
2023/03/07 03:46:20;;;;;;;7.60;6.28;;;;;;;;;;5073472;28;20255;-84
2023/03/07 03:48:52;;;;;;;6.45;5.00;;;;;;;;;;5072492;28;21065;-84
2023/03/07 03:51:20;;;;;;;6.78;6.05;;;;;;;;;;5073438;28;20185;-83
2023/03/07 03:53:50;;;;;;;5.72;5.13;;;;;;;;;;5073551;28;20296;-85
2023/03/07 03:56:20;;;;;;;7.22;5.60;;;;;;;;;;5064903;28;20230;-85
2023/03/07 03:58:48;;;;;;;5.97;5.40;;;;;;;;;;5054236;28;20742;-86
2023/03/07 04:01:16;;;;;;;6.40;5.50;;;;;;;;;;5054289;28;20288;-86
2023/03/07 04:03:46;;;;;;;5.88;5.30;;;;;;;;;;5054216;28;20714;-84
2023/03/07 04:06:17;;;;;;;5.03;4.40;;;;;;;;;;5052589;28;20221;-85
2023/03/07 04:08:46;;;;;;;6.75;6.07;;;;;;;;;;5052343;28;20185;-86
2023/03/07 04:11:15;;;;;;;5.10;4.32;;;;;;;;;;5054038;28;20205;-86
2023/03/07 04:13:43;;;;;;;6.78;5.18;;;;;;;;;;5053181;28;20293;-86
2023/03/07 04:16:10;;;;;;;6.70;5.05;;;;;;;;;;5052611;28;20230;-86
2023/03/07 04:18:39;;;;;;;5.63;4.68;;;;;;;;;;5053714;28;20563;-85
2023/03/07 04:21:08;;;;;;;4.78;4.10;;;;;;;;;;5053982;28;20201;-85
2023/03/07 04:23:36;;;;;;;5.90;4.65;;;;;;;;;;5054582;28;20743;-86
2023/03/07 04:26:06;;;;;;;6.03;4.50;;;;;;;;;;5061884;28;20233;-85
2023/03/07 04:28:44;;;;;;;5.30;4.30;;;;;;;;;;5062104;28;20190;-85
2023/03/07 04:31:12;;;;;;;4.25;3.85;;;;;;;;;;5054123;28;20192;-85
2023/03/07 04:33:40;;;;;;;5.07;4.30;;;;;;;;;;5054071;28;20208;-85
2023/03/07 04:36:08;;;;;;;4.80;4.13;;;;;;;;;;5052780;28;20651;-84
2023/03/07 04:38:37;;;;;;;3.40;3.08;;;;;;;;;;5052200;28;20247;-85
2023/03/07 04:41:05;;;;;;;4.72;4.03;;;;;;;;;;5054101;28;20198;-83
2023/03/07 04:43:33;;;;;;;4.88;4.38;;;;;;;;;;5054770;28;20201;-85
2023/03/07 04:46:02;;;;;;;3.95;3.60;;;;;;;;;;5053936;28;20218;-86
2023/03/07 04:48:29;;;;;;;4.07;3.42;;;;;;;;;;5053144;28;20210;-85
2023/03/07 04:50:57;;;;;;;4.18;3.78;;;;;;;;;;5053308;28;20225;-86
2023/03/07 04:53:24;;;;;;;4.43;3.95;;;;;;;;;;5057200;28;20244;-85
2023/03/07 04:55:56;;;;;;;4.35;3.95;;;;;;;;;;5063184;28;20264;-85
2023/03/07 04:58:27;;;;;;;3.85;3.47;;;;;;;;;;5078191;28;20192;-84
2023/03/07 05:00:55;;;;;;;3.55;3.25;;;;;;;;;;5075097;28;20283;-86
2023/03/07 05:03:25;;;;;;;3.10;2.70;;;;;;;;;;5077318;28;20201;-85
2023/03/07 05:05:53;;;;;;;3.75;3.45;;;;;;;;;;5076260;28;20657;-86
2023/03/07 05:08:22;;;;;;;4.03;3.53;;;;;;;;;;5076372;28;20197;-84
2023/03/07 05:10:49;;;;;;;3.78;3.00;;;;;;;;;;5076975;28;20563;-86
2023/03/07 05:13:16;;;;;;;3.65;2.97;;;;;;;;;;5076938;28;20292;-86
2023/03/07 05:15:44;;;;;;;2.78;2.55;;;;;;;;;;5076931;28;20673;-85
2023/03/07 05:18:11;;;;;;;3.28;2.97;;;;;;;;;;5076513;28;20292;-86
2023/03/07 05:20:41;;;;;;;4.00;3.17;;;;;;;;;;5078863;28;20243;-85
2023/03/07 05:23:09;;;;;;;3.78;3.40;;;;;;;;;;5080048;28;20233;-86
2023/03/07 05:25:36;;;;;;;4.07;3.67;;;;;;;;;;5073295;28;20320;-85
2023/03/07 05:28:04;;;;;;;3.28;2.97;;;;;;;;;;5056985;28;20201;-86
2023/03/07 05:30:31;;;;;;;4.03;3.65;;;;;;;;;;5056503;28;20294;-85
2023/03/07 05:32:59;;;;;;;5.35;4.63;;;;;;;;;;5057052;28;20292;-85
2023/03/07 05:35:27;;;;;;;4.43;4.03;;;;;;;;;;5055611;28;20713;-85
2023/03/07 05:37:55;;;;;;;4.63;3.83;;;;;;;;;;5056046;28;20640;-86
2023/03/07 05:40:23;;;;;;;4.28;3.88;;;;;;;;;;5056396;28;20202;-86
2023/03/07 05:42:51;;;;;;;3.58;3.28;;;;;;;;;;5057949;28;20198;-86
2023/03/07 05:45:19;;;;;;;5.53;3.88;;;;;;;;;;5057879;28;20312;-86
2023/03/07 05:47:47;;;;;;;4.30;3.90;;;;;;;;;;5058586;28;20267;-86
2023/03/07 05:50:15;;;;;;;4.05;3.67;;;;;;;;;;5057122;28;20293;-86
2023/03/07 05:52:42;;;;;;;3.38;3.08;;;;;;;;;;5059436;28;20738;-86
2023/03/07 05:55:11;;;;;;;4.18;3.78;;;;;;;;;;5057918;28;20706;-85
2023/03/07 05:57:39;;;;;;;3.75;3.15;;;;;;;;;;5059424;28;20284;-86
2023/03/07 06:00:10;;;;;;;4.22;2.78;;;;;;;;;;5056818;28;20244;-87
2023/03/07 06:02:37;;;;;;;3.03;2.75;;;;;;;;;;5056715;28;20186;-86
2023/03/07 06:05:05;;;;;;;2.40;2.20;;;;;;;;;;5055214;28;20396;-86
2023/03/07 06:07:33;;;;;;;3.45;3.15;;;;;;;;;;5055901;28;20204;-86
2023/03/07 06:10:00;;;;;;;5.63;4.97;;;;;;;;;;5055016;28;20244;-86
2023/03/07 06:12:31;;;;;;;4.63;4.22;;;;;;;;;;5059341;28;20878;-86
2023/03/07 06:14:59;;;;;;;3.95;3.60;;;;;;;;;;5062145;28;20761;-85
2023/03/07 06:17:26;;;;;;;4.35;3.67;;;;;;;;;;5059528;28;20217;-86
2023/03/07 06:20:00;;;;;;;2.95;2.75;;;;;;;;;;5062957;28;20624;-86
2023/03/07 06:22:27;;;;;;;3.40;3.10;;;;;;;;;;5056616;28;20273;-86
2023/03/07 06:24:55;;;;;;;3.03;2.63;;;;;;;;;;5056285;28;20201;-86
2023/03/07 06:27:22;;;;;;;3.13;2.80;;;;;;;;;;5074219;28;20284;-86
2023/03/07 06:29:51;;;;;;;2.72;2.53;;;;;;;;;;5076094;28;20236;-86
2023/03/07 06:32:19;;;;;;;2.60;2.40;;;;;;;;;;5076724;28;20658;-87
2023/03/07 06:34:46;;;;;;;2.85;2.58;;;;;;;;;;5074382;28;20231;-84
2023/03/07 06:37:14;;;;;;;3.42;3.13;;;;;;;;;;5074163;28;20308;-85
2023/03/07 06:39:41;;;;;;;3.05;2.72;;;;;;;;;;5075043;28;20229;-87
2023/03/07 06:42:09;;;;;;;2.78;2.50;;;;;;;;;;5075630;28;20212;-86
2023/03/07 06:44:36;;;;;;;2.95;2.53;;;;;;;;;;5075875;28;20299;-87
2023/03/07 06:47:05;;;;;;;2.95;2.67;;;;;;;;;;5075990;28;20197;-86
2023/03/07 06:49:33;;;;;;;3.42;3.08;;;;;;;;;;5075371;28;20193;-87
2023/03/07 06:52:00;;;;;;;2.88;2.60;;;;;;;;;;5077294;28;20844;-86
2023/03/07 06:54:28;;;;;;;2.53;2.30;;;;;;;;;;5077091;28;20268;-87
2023/03/07 06:56:55;;;;;;;2.55;2.35;;;;;;;;;;5069277;28;20256;-86
2023/03/07 06:59:23;;;;;;;2.78;2.50;;;;;;;;;;5065537;28;20271;-86
2023/03/07 07:01:51;;;;;;;2.92;2.60;;;;;;;;;;5076308;28;20351;-87
2023/03/07 07:04:19;;;;;;;3.10;2.78;;;;;;;;;;5075103;28;20224;-86
2023/03/07 07:06:47;;;;;;;3.25;2.95;;;;;;;;;;5074010;28;20304;-87
2023/03/07 07:09:14;;;;;;;4.20;3.30;;;;;;;;;;5074546;28;20233;-86
2023/03/07 07:11:42;;;;;;;3.67;3.25;;;;;;;;;;5076156;28;20300;-86
2023/03/07 07:14:09;;;;;;;2.28;2.08;;;;;;;;;;5075014;28;20205;-85
2023/03/07 07:16:37;;;;;;;3.00;2.70;;;;;;;;;;5075362;28;20296;-86
2023/03/07 07:19:04;;;;;;;2.53;2.33;;;;;;;;;;5073705;28;20296;-85
2023/03/07 07:21:33;;;;;;;4.38;3.97;;;;;;;;;;5073893;28;20211;-83
2023/03/07 07:24:01;;;;;;;3.00;2.78;;;;;;;;;;5073532;28;20304;-85
2023/03/07 07:26:28;;;;;;;3.78;3.47;;;;;;;;;;5072742;28;20225;-85
2023/03/07 07:28:55;;;;;;;2.72;2.53;;;;;;;;;;5073542;28;20728;-83
2023/03/07 07:31:23;;;;;;;2.80;2.58;;;;;;;;;;5074238;28;20221;-84
2023/03/07 07:33:50;;;;;;;3.25;2.97;;;;;;;;;;5073153;28;20609;-83
2023/03/07 07:36:18;;;;;;;3.40;3.10;;;;;;;;;;5072675;28;20217;-83
2023/03/07 07:38:47;;;;;;;3.67;3.25;;;;;;;;;;5072821;28;20232;-85
2023/03/07 07:41:14;;;;;;;3.88;3.50;;;;;;;;;;5073587;28;20247;-83
2023/03/07 07:43:42;;;;;;;4.18;3.88;;;;;;;;;;5073273;28;20289;-84
2023/03/07 07:46:09;;;;;;;3.70;3.33;;;;;;;;;;5073156;28;20248;-84
2023/03/07 07:48:37;;;;;;;3.67;3.35;;;;;;;;;;5072164;28;20293;-84
2023/03/07 07:51:05;;;;;;;3.95;3.55;;;;;;;;;;5072289;28;20260;-83
2023/03/07 07:53:33;;;;;;;4.20;3.80;;;;;;;;;;5072720;28;20280;-84
2023/03/07 07:56:02;;;;;;;3.90;3.55;;;;;;;;;;5072885;28;20308;-83
2023/03/07 07:58:29;;;;;;;3.50;3.20;;;;;;;;;;5072371;28;20259;-84
2023/03/07 08:00:57;;;;;;;4.05;3.65;;;;;;;;;;5072313;28;20280;-85
2023/03/07 08:03:24;;;;;;;4.63;4.15;;;;;;;;;;5072338;28;20287;-84
2023/03/07 08:05:52;;;;;;;4.15;3.75;;;;;;;;;;5072246;28;20235;-85
2023/03/07 08:08:20;;;;;;;4.45;4.05;;;;;;;;;;5072354;28;20260;-83
2023/03/07 08:10:48;;;;;;;4.63;4.20;;;;;;;;;;5072020;28;20235;-85
2023/03/07 08:13:19;;;;;;;4.68;4.18;;;;;;;;;;5072642;28;20236;-84
2023/03/07 08:15:47;;;;;;;4.38;3.95;;;;;;;;;;5072231;28;20232;-83
2023/03/07 08:18:14;;;;;;;4.72;4.03;;;;;;;;;;5072146;28;20265;-84
2023/03/07 08:20:42;;;;;;;4.28;3.88;;;;;;;;;;5071765;28;20240;-84
2023/03/07 08:23:09;;;;;;;4.63;4.22;;;;;;;;;;5072172;28;20205;-82
2023/03/07 08:25:37;;;;;;;5.85;5.30;;;;;;;;;;5072954;28;20685;-83
2023/03/07 08:28:05;;;;;;;4.90;4.28;;;;;;;;;;5076098;28;20197;-84
2023/03/07 08:30:37;;;;;;;5.72;5.13;;;;;;;;;;5075020;28;20193;-85
2023/03/07 08:33:04;;;;;;;5.75;5.05;;;;;;;;;;5075113;28;20191;-82
2023/03/07 08:35:32;;;;;;;5.30;4.80;;;;;;;;;;5074644;28;20231;-83
2023/03/07 08:38:00;;;;;;;5.53;4.95;;;;;;;;;;5072159;28;20253;-83
2023/03/07 08:40:29;;;;;;;6.13;5.05;;;;;;;;;;5054187;28;20288;-85
2023/03/07 08:42:56;;;;;;;5.40;4.85;;;;;;;;;;5061134;28;20208;-84
2023/03/07 08:45:24;;;;;;;5.85;4.78;;;;;;;;;;5074432;28;20307;-84
2023/03/07 08:47:54;;;;;;;5.82;5.10;;;;;;;;;;5076327;28;20193;-84
2023/03/07 08:50:23;;;;;;;9.68;7.75;;;;;;;;;;5075181;28;20205;-84
2023/03/07 08:52:50;;;;;;;6.65;5.95;;;;;;;;;;5076130;28;20185;-84
2023/03/07 08:55:18;;;;;;;5.95;5.00;;;;;;;;;;5075241;28;20308;-83
2023/03/07 08:57:46;;;;;;;6.38;5.18;;;;;;;;;;5075864;28;20220;-84
2023/03/07 09:00:16;;;;;;;6.25;5.28;;;;;;;;;;5066839;28;20197;-83
2023/03/07 09:02:44;;;;;;;5.05;4.55;;;;;;;;;;5055561;28;20205;-83
2023/03/07 09:05:13;;;;;;;6.07;5.45;;;;;;;;;;5070820;28;20701;-83
2023/03/07 09:07:41;;;;;;;6.30;5.70;;;;;;;;;;5075212;28;20275;-84
2023/03/07 09:10:11;;;;;;;6.72;6.03;;;;;;;;;;5074736;28;20201;-84
2023/03/07 09:12:38;;;;;;;5.80;4.85;;;;;;;;;;5064331;28;20565;-84
2023/03/07 09:15:08;;;;;;;6.18;5.47;;;;;;;;;;5076117;28;20311;-83
2023/03/07 09:17:35;;;;;;;6.95;5.80;;;;;;;;;;5076122;28;20224;-85
2023/03/07 09:20:03;;;;;;;6.68;5.97;;;;;;;;;;5076888;28;20288;-83
2023/03/07 09:22:32;;;;;;;6.25;5.65;;;;;;;;;;5078009;28;20178;-84
2023/03/07 09:24:59;;;;;;;6.53;5.80;;;;;;;;;;5075490;28;20313;-84
2023/03/07 09:27:27;;;;;;;7.63;6.35;;;;;;;;;;5056723;28;20622;-83
2023/03/07 09:29:55;;;;;;;5.75;5.13;;;;;;;;;;5055264;28;20539;-85
2023/03/07 09:32:22;;;;;;;5.97;5.35;;;;;;;;;;5056100;28;20817;-86
2023/03/07 09:34:50;;;;;;;5.90;5.03;;;;;;;;;;5056509;28;20297;-85
2023/03/07 09:37:18;;;;;;;6.03;5.43;;;;;;;;;;5054386;28;20289;-84
2023/03/07 09:39:49;;;;;;;6.22;4.47;;;;;;;;;;5055323;28;20206;-84
2023/03/07 09:42:22;;;;;;;5.30;4.57;;;;;;;;;;5061366;28;20212;-83
2023/03/07 09:45:09;;;;;;;6.68;5.63;;;;;;;;;;5064152;28;20205;-84
2023/03/07 09:48:03;;;;;;;5.80;5.00;;;;;;;;;;5055332;28;20208;-84
2023/03/07 09:50:39;;;;;;;7.90;6.22;;;;;;;;;;5054207;28;20189;-84
2023/03/07 09:53:09;;;;;;;5.30;4.80;;;;;;;;;;5054984;28;20280;-84
2023/03/07 09:55:38;;;;;;;6.30;5.72;;;;;;;;;;5059610;28;20256;-86
2023/03/07 09:58:13;;;;;;;6.38;5.40;;;;;;;;;;5077728;28;20581;-86
2023/03/07 10:00:44;;;;;;;6.38;5.68;;;;;;;;;;5077003;28;20185;-86
2023/03/07 10:03:31;;;;;;;5.72;5.15;;;;;;;;;;5077607;28;20646;-83
2023/03/07 10:06:02;;;;;;;5.95;5.10;;;;;;;;;;5076495;28;20224;-86
2023/03/07 10:08:32;;;;;;;6.45;5.85;;;;;;;;;;5076441;28;20250;-85
2023/03/07 10:11:13;;;;;;;7.35;5.47;;;;;;;;;;5077191;28;20192;-85
2023/03/07 10:13:52;;;;;;;5.47;4.95;;;;;;;;;;5077725;28;20567;-84
2023/03/07 10:16:30;;;;;;;7.55;5.35;;;;;;;;;;5077125;28;20768;-84
2023/03/07 10:19:10;;;;;;;6.95;6.18;;;;;;;;;;5076205;28;20236;-86
2023/03/07 10:21:46;;;;;;;5.43;4.47;;;;;;;;;;5076753;28;20188;-86
2023/03/07 10:24:29;;;;;;;6.22;5.18;;;;;;;;;;5076341;28;20188;-86
2023/03/07 10:27:03;;;;;;;4.53;4.10;;;;;;;;;;5076865;28;20315;-86
2023/03/07 10:29:37;;;;;;;5.18;4.68;;;;;;;;;;5076931;28;20649;-85
2023/03/07 10:32:26;;;;;;;6.43;4.78;;;;;;;;;;5076817;28;20279;-85
2023/03/07 10:35:00;;;;;;;5.45;4.90;;;;;;;;;;5076192;28;20634;-84
2023/03/07 10:37:42;;;;;;;4.88;4.28;;;;;;;;;;5075901;28;20622;-84
2023/03/07 10:40:18;;;;;;;5.47;4.85;;;;;;;;;;5073762;28;20228;-82
2023/03/07 10:42:47;;;;;;;5.47;4.47;;;;;;;;;;5074331;28;20206;-85
2023/03/07 10:45:16;;;;;;;4.65;4.25;;;;;;;;;;5074757;28;20223;-85
2023/03/07 10:47:43;;;;;;;5.18;4.65;;;;;;;;;;5074302;28;20197;-83
2023/03/07 10:50:31;;;;;;;4.55;3.90;;;;;;;;;;5072254;28;20287;-85
2023/03/07 10:53:00;;;;;;;4.53;4.00;;;;;;;;;;5074538;28;20196;-84
2023/03/07 10:55:38;;;;;;;5.50;4.30;;;;;;;;;;5071864;28;20223;-85
2023/03/07 10:58:20;;;;;;;4.77;4.23;;;;;;;;;;5054452;28;20196;-84
2023/03/07 11:01:01;;;;;;;4.22;3.83;;;;;;;;;;5053843;28;20236;-84
2023/03/07 11:03:33;;;;;;;4.97;4.38;;;;;;;;;;5054322;28;20186;-84
2023/03/07 11:06:01;;;;;;;4.55;4.10;;;;;;;;;;5054096;28;20824;-82
2023/03/07 11:08:34;;;;;;;5.90;4.78;;;;;;;;;;5053151;28;20736;-82
2023/03/07 11:11:04;;;;;;;4.40;4.00;;;;;;;;;;5059315;28;20284;-83
2023/03/07 11:13:33;;;;;;;4.32;3.33;;;;;;;;;;5070894;28;20219;-86
2023/03/07 11:16:19;;;;;;;4.72;3.85;;;;;;;;;;5074303;28;20224;-85
2023/03/07 11:18:47;;;;;;;4.15;3.63;;;;;;;;;;5074439;28;20669;-86
2023/03/07 11:21:30;;;;;;;3.42;3.13;;;;;;;;;;5075685;28;20319;-85
2023/03/07 11:24:05;;;;;;;4.35;3.95;;;;;;;;;;5075504;28;20646;-85
2023/03/07 11:26:39;;;;;;;3.80;3.50;;;;;;;;;;5075461;28;20248;-85
2023/03/07 11:29:11;;;;;;;3.30;3.00;;;;;;;;;;5075061;28;20223;-86
2023/03/07 11:31:52;;;;;;;5.13;3.85;;;;;;;;;;5075311;28;20213;-86
2023/03/07 11:34:35;;;;;;;2.95;2.70;;;;;;;;;;5074689;28;20275;-85
2023/03/07 11:37:29;;;;;;;3.42;3.13;;;;;;;;;;5076509;28;20233;-87
2023/03/07 11:40:23;;;;;;;3.28;2.97;;;;;;;;;;5076593;28;20201;-86
2023/03/07 11:43:01;;;;;;;3.50;3.20;;;;;;;;;;5075681;28;20177;-86
2023/03/07 11:45:35;;;;;;;3.35;3.05;;;;;;;;;;5075547;28;20224;-86
2023/03/07 11:48:19;;;;;;;3.60;3.03;;;;;;;;;;5075872;28;20193;-86
2023/03/07 11:51:03;;;;;;;3.38;3.08;;;;;;;;;;5074192;28;20209;-86
2023/03/07 11:53:57;;;;;;;3.70;3.30;;;;;;;;;;5075973;28;20705;-85
2023/03/07 11:56:36;;;;;;;5.30;4.78;;;;;;;;;;5076314;28;20221;-87
2023/03/07 11:59:34;;;;;;;4.00;3.60;;;;;;;;;;5075194;28;20235;-87
2023/03/07 12:02:03;;;;;;;2.42;2.22;;;;;;;;;;5081356;28;20673;-88
2023/03/07 12:04:55;;;;;;;1.90;1.80;;;;;;;;;;5080361;28;20243;-88
2023/03/07 12:07:44;;;;;;;1.23;1.05;;;;;;;;;;5079794;28;20185;-88
2023/03/07 12:10:28;;;;;;;0.70;0.70;;;;;;;;;;5080585;28;20669;-87
2023/03/07 12:13:09;;;;;;;0.85;0.85;;;;;;;;;;5080786;28;20264;-87
2023/03/07 12:15:42;;;;;;;0.75;0.75;;;;;;;;;;5080549;28;20260;-87
2023/03/07 12:18:29;;;;;;;0.80;0.80;;;;;;;;;;5080641;28;20695;-87
2023/03/07 12:21:06;;;;;;;1.55;1.45;;;;;;;;;;5081295;28;20241;-87
2023/03/07 12:23:38;;;;;;;0.88;0.88;;;;;;;;;;5080772;28;20719;-87
2023/03/07 12:26:11;;;;;;;0.80;0.80;;;;;;;;;;5080627;28;20236;-88
2023/03/07 12:28:45;;;;;;;0.70;0.70;;;;;;;;;;5080872;28;20177;-87
2023/03/07 12:31:23;;;;;;;1.30;1.13;;;;;;;;;;5080895;28;20611;-88
2023/03/07 12:33:57;;;;;;;0.85;0.60;;;;;;;;;;5080557;28;20222;-88
2023/03/07 12:36:32;;;;;;;1.83;1.70;;;;;;;;;;5080441;28;20637;-87
2023/03/07 12:39:06;;;;;;;2.97;1.67;;;;;;;;;;5080597;28;20272;-87
2023/03/07 12:41:52;;;;;;;1.00;1.00;;;;;;;;;;5080926;28;20213;-87
2023/03/07 12:44:36;;;;;;;0.70;0.70;;;;;;;;;;5080411;28;20185;-87
2023/03/07 12:47:14;;;;;;;1.02;1.02;;;;;;;;;;5080452;28;20255;-87
2023/03/07 12:49:49;;;;;;;1.30;1.20;;;;;;;;;;5080394;28;20272;-87
2023/03/07 12:52:29;;;;;;;1.70;1.60;;;;;;;;;;5080754;28;20188;-87
2023/03/07 12:55:01;;;;;;;1.20;0.90;;;;;;;;;;5080701;28;20210;-87
2023/03/07 12:57:33;;;;;;;1.27;1.10;;;;;;;;;;5080807;28;20231;-87
2023/03/07 13:00:07;;;;;;;1.55;1.13;;;;;;;;;;5080760;28;20654;-87
2023/03/07 13:02:40;;;;;;;3.67;1.55;;;;;;;;;;5080317;28;20272;-86
2023/03/07 13:05:19;;;;;;;1.10;1.10;;;;;;;;;;5079238;28;20228;-87
2023/03/07 13:07:47;;;;;;;0.95;0.95;;;;;;;;;;5079438;28;20196;-87
2023/03/07 13:10:20;;;;;;;1.00;1.00;;;;;;;;;;5079668;28;20219;-87
2023/03/07 13:12:48;;;;;;;0.60;0.60;;;;;;;;;;5077135;28;20196;-87
2023/03/07 13:16:08;;;;;;;0.80;0.80;;;;;;;;;;5076385;28;20678;-87
2023/03/07 13:18:35;;;;;;;0.60;0.60;;;;;;;;;;5067953;28;20288;-87
2023/03/07 13:21:32;;;;;;;0.60;0.60;;;;;;;;;;5076256;28;20749;-87
2023/03/07 13:24:34;;;;;;;1.15;1.15;;;;;;;;;;5065773;28;20203;-87
2023/03/07 13:27:03;;;;;;;0.70;0.70;;;;;;;;;;5033431;28;20237;-87
2023/03/07 13:30:20;;;;;;;0.70;0.70;;;;;;;;;;5033323;28;20595;-87
2023/03/07 13:33:00;;;;;;;1.35;1.00;;;;;;;;;;5005952;28;20211;-87
2023/03/07 13:35:56;;;;;;;0.90;0.90;;;;;;;;;;5066667;28;20304;-87
2023/03/07 13:38:34;;;;;;;0.60;0.60;;;;;;;;;;5076135;28;20188;-86
2023/03/07 13:41:03;;;;;;;0.80;0.80;;;;;;;;;;5075682;28;20896;-86
2023/03/07 13:44:01;;;;;;;1.35;0.60;;;;;;;;;;5076189;28;20246;-87
2023/03/07 13:46:47;;;;;;;0.82;0.82;;;;;;;;;;5070646;28;20275;-86
2023/03/07 13:49:43;;;;;;;0.57;0.52;;;;;;;;;;5073845;28;20250;-86
2023/03/07 13:52:38;;;;;;;0.73;0.73;;;;;;;;;;5075666;28;20189;-86
2023/03/07 13:55:32;;;;;;;0.80;0.80;;;;;;;;;;5075696;28;20225;-87
2023/03/07 13:58:16;;;;;;;0.77;0.77;;;;;;;;;;5056005;28;20235;-86
2023/03/07 14:00:53;;;;;;;0.60;0.60;;;;;;;;;;5055042;28;20217;-86
2023/03/07 14:03:31;;;;;;;0.88;0.80;;;;;;;;;;5055500;28;20208;-86
2023/03/07 14:06:03;;;;;;;3.65;1.52;;;;;;;;;;5054994;28;20229;-86
2023/03/07 14:08:33;;;;;;;2.00;1.60;;;;;;;;;;5054893;28;20185;-88
2023/03/07 14:11:02;;;;;;;1.27;1.20;;;;;;;;;;5055185;28;20189;-86
2023/03/07 14:13:50;;;;;;;0.82;0.82;;;;;;;;;;5054838;28;20229;-86
2023/03/07 14:16:30;;;;;;;1.40;1.30;;;;;;;;;;5054745;28;20226;-86
2023/03/07 14:19:11;;;;;;;0.90;0.90;;;;;;;;;;5054608;28;20192;-86
2023/03/07 14:21:52;;;;;;;0.93;0.93;;;;;;;;;;5055225;28;20577;-87
2023/03/07 14:24:51;;;;;;;2.13;1.08;;;;;;;;;;5054539;28;20217;-85
2023/03/07 14:27:19;;;;;;;1.08;1.08;;;;;;;;;;5055028;28;20696;-87
2023/03/07 14:29:52;;;;;;;0.80;0.80;;;;;;;;;;5054322;28;20294;-86
2023/03/07 14:32:26;;;;;;;0.80;0.80;;;;;;;;;;5054594;28;20289;-86
2023/03/07 14:34:54;;;;;;;0.80;0.80;;;;;;;;;;5055344;28;20192;-85
2023/03/07 14:37:26;;;;;;;0.80;0.80;;;;;;;;;;5054569;28;20259;-86
2023/03/07 14:40:10;;;;;;;0.73;0.73;;;;;;;;;;5054353;28;20205;-85
2023/03/07 14:42:46;;;;;;;1.20;1.10;;;;;;;;;;5054179;28;20602;-85
2023/03/07 14:45:23;;;;;;;1.40;1.30;;;;;;;;;;5054228;28;20221;-84
2023/03/07 14:48:14;;;;;;;1.02;1.02;;;;;;;;;;5054376;28;20201;-85
2023/03/07 14:50:43;;;;;;;0.80;0.80;;;;;;;;;;5053969;28;20186;-84
2023/03/07 14:53:16;;;;;;;0.98;0.98;;;;;;;;;;5054045;28;20201;-84
2023/03/07 14:55:46;;;;;;;1.30;1.20;;;;;;;;;;5053975;28;20228;-86
2023/03/07 14:58:20;;;;;;;1.55;1.25;;;;;;;;;;5054064;28;20209;-85
2023/03/07 15:00:58;;;;;;;1.05;1.05;;;;;;;;;;5057396;28;20792;-85
2023/03/07 15:03:34;;;;;;;1.50;0.80;;;;;;;;;;5073439;28;20204;-85
2023/03/07 15:06:03;;;;;;;1.00;1.00;;;;;;;;;;5073839;28;20304;-86
2023/03/07 15:08:34;;;;;;;1.92;1.83;;;;;;;;;;5073671;28;20201;-85
2023/03/07 15:11:05;;;;;;;1.00;1.00;;;;;;;;;;5076332;28;20177;-86